sensor_id;sensor_type;location;lat;lon;timestamp;P1;durP1;ratioP1;P2;durP2;ratioP2
30515;SDS011;17297;54.022;10.760;2023-07-08T00:01:35;3.40;;;2.88;;
30515;SDS011;17297;54.022;10.760;2023-07-08T00:04:00;4.93;;;3.47;;
30515;SDS011;17297;54.022;10.760;2023-07-08T00:06:28;3.47;;;2.97;;
30515;SDS011;17297;54.022;10.760;2023-07-08T00:08:53;3.65;;;3.35;;
30515;SDS011;17297;54.022;10.760;2023-07-08T00:11:19;3.22;;;2.90;;
30515;SDS011;17297;54.022;10.760;2023-07-08T00:13:44;4.28;;;3.50;;
30515;SDS011;17297;54.022;10.760;2023-07-08T00:16:10;3.42;;;3.13;;
30515;SDS011;17297;54.022;10.760;2023-07-08T00:18:37;4.18;;;3.22;;
30515;SDS011;17297;54.022;10.760;2023-07-08T00:21:04;3.70;;;3.47;;
30515;SDS011;17297;54.022;10.760;2023-07-08T00:23:33;4.78;;;3.45;;
30515;SDS011;17297;54.022;10.760;2023-07-08T00:26:01;3.92;;;3.53;;
30515;SDS011;17297;54.022;10.760;2023-07-08T00:28:26;3.70;;;3.25;;
30515;SDS011;17297;54.022;10.760;2023-07-08T00:30:52;3.40;;;3.10;;
30515;SDS011;17297;54.022;10.760;2023-07-08T00:33:19;3.92;;;2.97;;
30515;SDS011;17297;54.022;10.760;2023-07-08T00:35:44;3.30;;;3.00;;
30515;SDS011;17297;54.022;10.760;2023-07-08T00:38:22;4.07;;;3.20;;
30515;SDS011;17297;54.022;10.760;2023-07-08T00:41:14;5.28;;;3.65;;
30515;SDS011;17297;54.022;10.760;2023-07-08T00:43:51;4.93;;;2.95;;
30515;SDS011;17297;54.022;10.760;2023-07-08T00:49:00;5.38;;;3.65;;
30515;SDS011;17297;54.022;10.760;2023-07-08T00:51:48;3.30;;;3.00;;
30515;SDS011;17297;54.022;10.760;2023-07-08T00:54:16;3.15;;;2.95;;
30515;SDS011;17297;54.022;10.760;2023-07-08T00:59:29;4.90;;;3.45;;
30515;SDS011;17297;54.022;10.760;2023-07-08T01:01:59;3.53;;;3.22;;
30515;SDS011;17297;54.022;10.760;2023-07-08T01:04:30;5.55;;;3.97;;
30515;SDS011;17297;54.022;10.760;2023-07-08T01:09:33;4.95;;;3.35;;
30515;SDS011;17297;54.022;10.760;2023-07-08T01:12:04;4.53;;;3.47;;
30515;SDS011;17297;54.022;10.760;2023-07-08T01:14:34;3.65;;;3.35;;
30515;SDS011;17297;54.022;10.760;2023-07-08T01:17:02;3.55;;;3.25;;
30515;SDS011;17297;54.022;10.760;2023-07-08T01:19:28;4.20;;;3.80;;
30515;SDS011;17297;54.022;10.760;2023-07-08T01:22:04;5.15;;;3.90;;
30515;SDS011;17297;54.022;10.760;2023-07-08T01:24:31;5.05;;;3.80;;
30515;SDS011;17297;54.022;10.760;2023-07-08T01:27:00;4.07;;;3.67;;
30515;SDS011;17297;54.022;10.760;2023-07-08T01:29:27;3.50;;;3.20;;
30515;SDS011;17297;54.022;10.760;2023-07-08T01:31:54;4.40;;;3.47;;
30515;SDS011;17297;54.022;10.760;2023-07-08T01:34:24;5.38;;;3.70;;
30515;SDS011;17297;54.022;10.760;2023-07-08T01:36:51;5.30;;;3.60;;
30515;SDS011;17297;54.022;10.760;2023-07-08T01:39:20;3.63;;;3.33;;
30515;SDS011;17297;54.022;10.760;2023-07-08T01:41:48;4.45;;;3.72;;
30515;SDS011;17297;54.022;10.760;2023-07-08T01:46:51;5.00;;;4.43;;
30515;SDS011;17297;54.022;10.760;2023-07-08T01:49:19;4.13;;;3.72;;
30515;SDS011;17297;54.022;10.760;2023-07-08T01:51:46;3.67;;;3.10;;
30515;SDS011;17297;54.022;10.760;2023-07-08T01:54:13;3.45;;;2.85;;
30515;SDS011;17297;54.022;10.760;2023-07-08T01:56:38;3.78;;;3.33;;
30515;SDS011;17297;54.022;10.760;2023-07-08T01:59:03;7.32;;;3.55;;
30515;SDS011;17297;54.022;10.760;2023-07-08T02:01:29;4.30;;;3.90;;
30515;SDS011;17297;54.022;10.760;2023-07-08T02:03:54;3.42;;;3.13;;
30515;SDS011;17297;54.022;10.760;2023-07-08T02:06:19;3.92;;;3.47;;
30515;SDS011;17297;54.022;10.760;2023-07-08T02:08:45;3.45;;;3.10;;
30515;SDS011;17297;54.022;10.760;2023-07-08T02:11:10;3.13;;;2.83;;
30515;SDS011;17297;54.022;10.760;2023-07-08T02:13:35;4.72;;;3.47;;
30515;SDS011;17297;54.022;10.760;2023-07-08T02:16:01;3.63;;;3.15;;
30515;SDS011;17297;54.022;10.760;2023-07-08T02:18:26;4.00;;;3.60;;
30515;SDS011;17297;54.022;10.760;2023-07-08T02:20:51;3.63;;;3.33;;
30515;SDS011;17297;54.022;10.760;2023-07-08T02:23:18;3.08;;;2.85;;
30515;SDS011;17297;54.022;10.760;2023-07-08T02:25:50;4.18;;;3.60;;
30515;SDS011;17297;54.022;10.760;2023-07-08T02:28:19;3.65;;;3.35;;
30515;SDS011;17297;54.022;10.760;2023-07-08T02:30:45;4.15;;;3.75;;
30515;SDS011;17297;54.022;10.760;2023-07-08T02:33:12;6.50;;;4.03;;
30515;SDS011;17297;54.022;10.760;2023-07-08T02:35:39;5.00;;;3.72;;
30515;SDS011;17297;54.022;10.760;2023-07-08T02:38:05;3.97;;;3.60;;
30515;SDS011;17297;54.022;10.760;2023-07-08T02:40:30;3.90;;;3.60;;
30515;SDS011;17297;54.022;10.760;2023-07-08T02:42:56;4.85;;;3.55;;
30515;SDS011;17297;54.022;10.760;2023-07-08T02:45:21;4.53;;;4.13;;
30515;SDS011;17297;54.022;10.760;2023-07-08T02:47:46;5.35;;;4.00;;
30515;SDS011;17297;54.022;10.760;2023-07-08T02:50:12;4.20;;;3.80;;
30515;SDS011;17297;54.022;10.760;2023-07-08T02:52:38;3.63;;;3.33;;
30515;SDS011;17297;54.022;10.760;2023-07-08T02:55:03;4.35;;;3.95;;
30515;SDS011;17297;54.022;10.760;2023-07-08T02:57:29;4.25;;;3.85;;
30515;SDS011;17297;54.022;10.760;2023-07-08T02:59:55;4.40;;;4.00;;
30515;SDS011;17297;54.022;10.760;2023-07-08T03:02:23;3.65;;;3.25;;
30515;SDS011;17297;54.022;10.760;2023-07-08T03:04:49;5.25;;;4.75;;
30515;SDS011;17297;54.022;10.760;2023-07-08T03:07:16;4.05;;;3.60;;
30515;SDS011;17297;54.022;10.760;2023-07-08T03:09:42;4.40;;;3.92;;
30515;SDS011;17297;54.022;10.760;2023-07-08T03:12:09;5.10;;;4.60;;
30515;SDS011;17297;54.022;10.760;2023-07-08T03:14:36;4.10;;;3.70;;
30515;SDS011;17297;54.022;10.760;2023-07-08T03:17:03;7.05;;;3.78;;
30515;SDS011;17297;54.022;10.760;2023-07-08T03:19:29;4.40;;;3.55;;
30515;SDS011;17297;54.022;10.760;2023-07-08T03:21:54;4.03;;;3.63;;
30515;SDS011;17297;54.022;10.760;2023-07-08T03:24:20;4.57;;;3.58;;
30515;SDS011;17297;54.022;10.760;2023-07-08T03:26:46;4.00;;;3.60;;
30515;SDS011;17297;54.022;10.760;2023-07-08T03:29:16;4.50;;;4.05;;
30515;SDS011;17297;54.022;10.760;2023-07-08T03:31:44;4.13;;;3.67;;
30515;SDS011;17297;54.022;10.760;2023-07-08T03:34:14;3.40;;;3.10;;
30515;SDS011;17297;54.022;10.760;2023-07-08T03:36:42;4.18;;;3.88;;
30515;SDS011;17297;54.022;10.760;2023-07-08T03:39:18;4.97;;;4.28;;
30515;SDS011;17297;54.022;10.760;2023-07-08T03:41:45;3.92;;;3.17;;
30515;SDS011;17297;54.022;10.760;2023-07-08T03:44:11;5.45;;;3.75;;
30515;SDS011;17297;54.022;10.760;2023-07-08T03:46:37;3.58;;;3.28;;
30515;SDS011;17297;54.022;10.760;2023-07-08T03:49:04;4.25;;;3.17;;
30515;SDS011;17297;54.022;10.760;2023-07-08T03:51:35;4.28;;;3.88;;
30515;SDS011;17297;54.022;10.760;2023-07-08T03:54:02;6.15;;;3.97;;
30515;SDS011;17297;54.022;10.760;2023-07-08T03:56:32;4.85;;;4.22;;
30515;SDS011;17297;54.022;10.760;2023-07-08T03:58:58;4.45;;;3.95;;
30515;SDS011;17297;54.022;10.760;2023-07-08T04:01:24;3.55;;;2.97;;
30515;SDS011;17297;54.022;10.760;2023-07-08T04:03:51;4.22;;;3.78;;
30515;SDS011;17297;54.022;10.760;2023-07-08T04:06:18;4.70;;;4.13;;
30515;SDS011;17297;54.022;10.760;2023-07-08T04:08:44;5.35;;;4.43;;
30515;SDS011;17297;54.022;10.760;2023-07-08T04:11:15;5.35;;;4.85;;
30515;SDS011;17297;54.022;10.760;2023-07-08T04:13:42;5.35;;;4.88;;
30515;SDS011;17297;54.022;10.760;2023-07-08T04:16:09;5.25;;;4.75;;
30515;SDS011;17297;54.022;10.760;2023-07-08T04:18:42;4.88;;;4.47;;
30515;SDS011;17297;54.022;10.760;2023-07-08T04:21:07;5.40;;;4.90;;
30515;SDS011;17297;54.022;10.760;2023-07-08T04:23:32;4.65;;;4.25;;
30515;SDS011;17297;54.022;10.760;2023-07-08T04:25:57;4.53;;;4.13;;
30515;SDS011;17297;54.022;10.760;2023-07-08T04:28:24;6.03;;;5.53;;
30515;SDS011;17297;54.022;10.760;2023-07-08T04:30:49;4.43;;;4.03;;
30515;SDS011;17297;54.022;10.760;2023-07-08T04:33:15;6.40;;;4.30;;
30515;SDS011;17297;54.022;10.760;2023-07-08T04:35:41;5.25;;;4.57;;
30515;SDS011;17297;54.022;10.760;2023-07-08T04:38:12;4.78;;;4.28;;
30515;SDS011;17297;54.022;10.760;2023-07-08T04:40:42;5.45;;;4.30;;
30515;SDS011;17297;54.022;10.760;2023-07-08T04:43:08;4.93;;;4.53;;
30515;SDS011;17297;54.022;10.760;2023-07-08T04:45:40;5.30;;;4.80;;
30515;SDS011;17297;54.022;10.760;2023-07-08T04:48:11;4.95;;;4.55;;
30515;SDS011;17297;54.022;10.760;2023-07-08T04:50:42;5.30;;;4.80;;
30515;SDS011;17297;54.022;10.760;2023-07-08T04:53:09;5.60;;;4.63;;
30515;SDS011;17297;54.022;10.760;2023-07-08T04:55:39;6.13;;;5.32;;
30515;SDS011;17297;54.022;10.760;2023-07-08T04:58:07;5.30;;;4.60;;
30515;SDS011;17297;54.022;10.760;2023-07-08T05:00:33;5.75;;;5.18;;
30515;SDS011;17297;54.022;10.760;2023-07-08T05:02:58;5.68;;;5.13;;
30515;SDS011;17297;54.022;10.760;2023-07-08T05:05:24;6.20;;;4.82;;
30515;SDS011;17297;54.022;10.760;2023-07-08T05:07:49;5.75;;;5.13;;
30515;SDS011;17297;54.022;10.760;2023-07-08T05:10:15;7.70;;;5.25;;
30515;SDS011;17297;54.022;10.760;2023-07-08T05:12:41;6.10;;;5.50;;
30515;SDS011;17297;54.022;10.760;2023-07-08T05:15:07;5.97;;;4.80;;
30515;SDS011;17297;54.022;10.760;2023-07-08T05:17:33;5.55;;;5.05;;
30515;SDS011;17297;54.022;10.760;2023-07-08T05:19:59;5.22;;;4.30;;
30515;SDS011;17297;54.022;10.760;2023-07-08T05:22:26;5.93;;;5.13;;
30515;SDS011;17297;54.022;10.760;2023-07-08T05:24:52;4.68;;;4.28;;
30515;SDS011;17297;54.022;10.760;2023-07-08T05:27:20;5.35;;;4.55;;
30515;SDS011;17297;54.022;10.760;2023-07-08T05:29:47;5.68;;;5.18;;
30515;SDS011;17297;54.022;10.760;2023-07-08T05:32:12;5.63;;;4.20;;
30515;SDS011;17297;54.022;10.760;2023-07-08T05:34:37;3.90;;;3.55;;
30515;SDS011;17297;54.022;10.760;2023-07-08T05:37:02;7.07;;;4.43;;
30515;SDS011;17297;54.022;10.760;2023-07-08T05:39:29;4.10;;;3.15;;
30515;SDS011;17297;54.022;10.760;2023-07-08T05:41:55;4.15;;;3.33;;
30515;SDS011;17297;54.022;10.760;2023-07-08T05:44:20;4.40;;;4.00;;
30515;SDS011;17297;54.022;10.760;2023-07-08T05:46:46;5.13;;;4.10;;
30515;SDS011;17297;54.022;10.760;2023-07-08T05:49:11;4.63;;;4.20;;
30515;SDS011;17297;54.022;10.760;2023-07-08T05:51:36;5.22;;;4.05;;
30515;SDS011;17297;54.022;10.760;2023-07-08T05:54:02;3.75;;;3.35;;
30515;SDS011;17297;54.022;10.760;2023-07-08T05:56:27;3.72;;;3.42;;
30515;SDS011;17297;54.022;10.760;2023-07-08T05:58:52;4.50;;;4.10;;
30515;SDS011;17297;54.022;10.760;2023-07-08T06:01:18;5.35;;;3.03;;
30515;SDS011;17297;54.022;10.760;2023-07-08T06:03:43;4.60;;;2.65;;
30515;SDS011;17297;54.022;10.760;2023-07-08T06:06:08;3.15;;;2.85;;
30515;SDS011;17297;54.022;10.760;2023-07-08T06:08:34;4.13;;;2.75;;
30515;SDS011;17297;54.022;10.760;2023-07-08T06:10:59;3.03;;;2.80;;
30515;SDS011;17297;54.022;10.760;2023-07-08T06:13:25;3.45;;;3.03;;
30515;SDS011;17297;54.022;10.760;2023-07-08T06:15:50;3.97;;;3.58;;
30515;SDS011;17297;54.022;10.760;2023-07-08T06:18:15;5.70;;;3.20;;
30515;SDS011;17297;54.022;10.760;2023-07-08T06:20:41;4.40;;;3.72;;
30515;SDS011;17297;54.022;10.760;2023-07-08T06:23:06;4.50;;;3.60;;
30515;SDS011;17297;54.022;10.760;2023-07-08T06:25:32;3.97;;;3.53;;
30515;SDS011;17297;54.022;10.760;2023-07-08T06:27:58;5.68;;;4.00;;
30515;SDS011;17297;54.022;10.760;2023-07-08T06:30:23;4.45;;;4.05;;
30515;SDS011;17297;54.022;10.760;2023-07-08T06:32:48;4.15;;;3.70;;
30515;SDS011;17297;54.022;10.760;2023-07-08T06:35:14;4.60;;;3.25;;
30515;SDS011;17297;54.022;10.760;2023-07-08T06:37:39;4.20;;;3.85;;
30515;SDS011;17297;54.022;10.760;2023-07-08T06:40:05;3.83;;;3.53;;
30515;SDS011;17297;54.022;10.760;2023-07-08T06:42:31;4.47;;;3.25;;
30515;SDS011;17297;54.022;10.760;2023-07-08T06:45:10;5.47;;;3.50;;
30515;SDS011;17297;54.022;10.760;2023-07-08T06:47:35;4.05;;;3.40;;
30515;SDS011;17297;54.022;10.760;2023-07-08T06:50:01;5.10;;;3.85;;
30515;SDS011;17297;54.022;10.760;2023-07-08T06:52:27;5.22;;;3.67;;
30515;SDS011;17297;54.022;10.760;2023-07-08T06:54:52;4.28;;;3.78;;
30515;SDS011;17297;54.022;10.760;2023-07-08T06:57:18;3.45;;;3.08;;
30515;SDS011;17297;54.022;10.760;2023-07-08T06:59:43;3.80;;;3.50;;
30515;SDS011;17297;54.022;10.760;2023-07-08T07:02:08;4.10;;;3.53;;
30515;SDS011;17297;54.022;10.760;2023-07-08T07:04:34;6.68;;;3.25;;
30515;SDS011;17297;54.022;10.760;2023-07-08T07:07:00;3.78;;;3.45;;
30515;SDS011;17297;54.022;10.760;2023-07-08T07:09:26;3.80;;;2.95;;
30515;SDS011;17297;54.022;10.760;2023-07-08T07:11:51;4.47;;;3.50;;
30515;SDS011;17297;54.022;10.760;2023-07-08T07:14:16;3.95;;;3.65;;
30515;SDS011;17297;54.022;10.760;2023-07-08T07:16:42;4.65;;;2.95;;
30515;SDS011;17297;54.022;10.760;2023-07-08T07:19:07;4.20;;;3.22;;
30515;SDS011;17297;54.022;10.760;2023-07-08T07:21:32;3.65;;;3.35;;
30515;SDS011;17297;54.022;10.760;2023-07-08T07:23:58;3.92;;;3.53;;
30515;SDS011;17297;54.022;10.760;2023-07-08T07:26:23;3.53;;;3.22;;
30515;SDS011;17297;54.022;10.760;2023-07-08T07:28:48;6.57;;;3.70;;
30515;SDS011;17297;54.022;10.760;2023-07-08T07:31:14;4.75;;;3.53;;
30515;SDS011;17297;54.022;10.760;2023-07-08T07:33:39;5.22;;;3.20;;
30515;SDS011;17297;54.022;10.760;2023-07-08T07:36:04;5.50;;;3.47;;
30515;SDS011;17297;54.022;10.760;2023-07-08T07:38:32;3.83;;;3.00;;
30515;SDS011;17297;54.022;10.760;2023-07-08T07:40:58;4.32;;;3.85;;
30515;SDS011;17297;54.022;10.760;2023-07-08T07:43:25;3.67;;;3.38;;
30515;SDS011;17297;54.022;10.760;2023-07-08T07:45:51;4.13;;;3.55;;
30515;SDS011;17297;54.022;10.760;2023-07-08T07:48:17;7.28;;;4.22;;
30515;SDS011;17297;54.022;10.760;2023-07-08T07:50:46;5.85;;;3.83;;
30515;SDS011;17297;54.022;10.760;2023-07-08T07:53:13;7.35;;;4.00;;
30515;SDS011;17297;54.022;10.760;2023-07-08T07:55:39;4.65;;;4.18;;
30515;SDS011;17297;54.022;10.760;2023-07-08T07:58:04;6.10;;;3.88;;
30515;SDS011;17297;54.022;10.760;2023-07-08T08:00:30;6.82;;;4.13;;
30515;SDS011;17297;54.022;10.760;2023-07-08T08:02:55;5.85;;;4.93;;
30515;SDS011;17297;54.022;10.760;2023-07-08T08:05:21;4.47;;;4.07;;
30515;SDS011;17297;54.022;10.760;2023-07-08T08:07:46;7.18;;;4.43;;
30515;SDS011;17297;54.022;10.760;2023-07-08T08:10:12;6.72;;;4.75;;
30515;SDS011;17297;54.022;10.760;2023-07-08T08:12:38;7.03;;;4.25;;
30515;SDS011;17297;54.022;10.760;2023-07-08T08:15:04;4.35;;;3.95;;
30515;SDS011;17297;54.022;10.760;2023-07-08T08:17:29;3.40;;;2.85;;
30515;SDS011;17297;54.022;10.760;2023-07-08T08:19:55;5.20;;;4.03;;
30515;SDS011;17297;54.022;10.760;2023-07-08T08:22:20;4.43;;;3.58;;
30515;SDS011;17297;54.022;10.760;2023-07-08T08:24:46;4.57;;;3.58;;
30515;SDS011;17297;54.022;10.760;2023-07-08T08:27:11;4.32;;;3.38;;
30515;SDS011;17297;54.022;10.760;2023-07-08T08:29:37;4.53;;;3.70;;
30515;SDS011;17297;54.022;10.760;2023-07-08T08:32:02;4.82;;;3.30;;
30515;SDS011;17297;54.022;10.760;2023-07-08T08:34:28;3.45;;;3.15;;
30515;SDS011;17297;54.022;10.760;2023-07-08T08:36:53;4.32;;;3.92;;
30515;SDS011;17297;54.022;10.760;2023-07-08T08:39:20;4.28;;;3.67;;
30515;SDS011;17297;54.022;10.760;2023-07-08T08:41:46;4.03;;;3.42;;
30515;SDS011;17297;54.022;10.760;2023-07-08T08:44:15;5.38;;;4.05;;
30515;SDS011;17297;54.022;10.760;2023-07-08T08:47:03;4.40;;;3.03;;
30515;SDS011;17297;54.022;10.760;2023-07-08T08:49:43;5.45;;;3.83;;
30515;SDS011;17297;54.022;10.760;2023-07-08T08:52:12;6.30;;;4.05;;
30515;SDS011;17297;54.022;10.760;2023-07-08T08:54:39;5.93;;;4.00;;
30515;SDS011;17297;54.022;10.760;2023-07-08T08:57:06;3.85;;;3.45;;
30515;SDS011;17297;54.022;10.760;2023-07-08T08:59:52;4.30;;;3.30;;
30515;SDS011;17297;54.022;10.760;2023-07-08T09:05:04;4.05;;;3.70;;
30515;SDS011;17297;54.022;10.760;2023-07-08T09:07:38;5.25;;;3.65;;
30515;SDS011;17297;54.022;10.760;2023-07-08T09:13:11;3.97;;;3.58;;
30515;SDS011;17297;54.022;10.760;2023-07-08T09:15:46;6.20;;;4.15;;
30515;SDS011;17297;54.022;10.760;2023-07-08T09:18:15;4.72;;;4.07;;
30515;SDS011;17297;54.022;10.760;2023-07-08T09:20:45;12.07;;;4.70;;
30515;SDS011;17297;54.022;10.760;2023-07-08T09:26:02;4.55;;;4.15;;
30515;SDS011;17297;54.022;10.760;2023-07-08T09:28:36;5.03;;;4.53;;
30515;SDS011;17297;54.022;10.760;2023-07-08T09:31:03;7.60;;;5.47;;
30515;SDS011;17297;54.022;10.760;2023-07-08T09:33:31;8.10;;;7.22;;
30515;SDS011;17297;54.022;10.760;2023-07-08T09:35:56;7.32;;;6.63;;
30515;SDS011;17297;54.022;10.760;2023-07-08T09:38:22;8.15;;;7.35;;
30515;SDS011;17297;54.022;10.760;2023-07-08T09:40:48;8.48;;;6.90;;
30515;SDS011;17297;54.022;10.760;2023-07-08T09:43:28;12.85;;;8.43;;
30515;SDS011;17297;54.022;10.760;2023-07-08T09:46:01;8.68;;;7.78;;
30515;SDS011;17297;54.022;10.760;2023-07-08T09:48:33;8.45;;;7.55;;
30515;SDS011;17297;54.022;10.760;2023-07-08T09:51:00;7.72;;;6.75;;
30515;SDS011;17297;54.022;10.760;2023-07-08T09:53:26;8.20;;;6.40;;
30515;SDS011;17297;54.022;10.760;2023-07-08T09:55:52;8.55;;;7.00;;
30515;SDS011;17297;54.022;10.760;2023-07-08T09:58:24;9.10;;;6.28;;
30515;SDS011;17297;54.022;10.760;2023-07-08T10:00:57;5.43;;;4.82;;
30515;SDS011;17297;54.022;10.760;2023-07-08T10:03:28;7.55;;;6.80;;
30515;SDS011;17297;54.022;10.760;2023-07-08T10:05:57;6.53;;;5.38;;
30515;SDS011;17297;54.022;10.760;2023-07-08T10:08:29;5.78;;;4.80;;
30515;SDS011;17297;54.022;10.760;2023-07-08T10:11:10;11.75;;;5.95;;
30515;SDS011;17297;54.022;10.760;2023-07-08T10:13:45;6.38;;;4.47;;
30515;SDS011;17297;54.022;10.760;2023-07-08T10:16:24;7.47;;;4.20;;
30515;SDS011;17297;54.022;10.760;2023-07-08T10:18:52;6.70;;;3.75;;
30515;SDS011;17297;54.022;10.760;2023-07-08T10:24:21;6.75;;;4.20;;
30515;SDS011;17297;54.022;10.760;2023-07-08T10:30:26;5.15;;;4.45;;
30515;SDS011;17297;54.022;10.760;2023-07-08T10:33:00;6.90;;;4.35;;
30515;SDS011;17297;54.022;10.760;2023-07-08T10:35:53;5.63;;;4.53;;
30515;SDS011;17297;54.022;10.760;2023-07-08T10:41:49;7.22;;;4.13;;
30515;SDS011;17297;54.022;10.760;2023-07-08T10:44:26;7.78;;;4.18;;
30515;SDS011;17297;54.022;10.760;2023-07-08T10:47:01;5.15;;;3.92;;
30515;SDS011;17297;54.022;10.760;2023-07-08T10:52:28;6.90;;;4.03;;
30515;SDS011;17297;54.022;10.760;2023-07-08T10:57:53;5.40;;;4.82;;
30515;SDS011;17297;54.022;10.760;2023-07-08T11:00:47;15.43;;;4.97;;
30515;SDS011;17297;54.022;10.760;2023-07-08T11:06:26;7.20;;;4.88;;
30515;SDS011;17297;54.022;10.760;2023-07-08T11:09:00;7.38;;;4.20;;
30515;SDS011;17297;54.022;10.760;2023-07-08T11:17:12;5.22;;;4.10;;
30515;SDS011;17297;54.022;10.760;2023-07-08T11:20:07;6.53;;;4.30;;
30515;SDS011;17297;54.022;10.760;2023-07-08T11:22:47;11.40;;;5.13;;
30515;SDS011;17297;54.022;10.760;2023-07-08T11:27:43;6.88;;;4.07;;
30515;SDS011;17297;54.022;10.760;2023-07-08T11:30:13;5.40;;;3.50;;
30515;SDS011;17297;54.022;10.760;2023-07-08T11:32:43;5.32;;;3.33;;
30515;SDS011;17297;54.022;10.760;2023-07-08T11:35:23;4.82;;;3.63;;
30515;SDS011;17297;54.022;10.760;2023-07-08T11:37:58;7.00;;;3.22;;
30515;SDS011;17297;54.022;10.760;2023-07-08T11:40:24;4.88;;;3.83;;
30515;SDS011;17297;54.022;10.760;2023-07-08T11:42:59;4.50;;;3.42;;
30515;SDS011;17297;54.022;10.760;2023-07-08T11:45:31;6.63;;;3.90;;
30515;SDS011;17297;54.022;10.760;2023-07-08T11:48:13;4.95;;;3.72;;
30515;SDS011;17297;54.022;10.760;2023-07-08T11:50:44;3.20;;;2.90;;
30515;SDS011;17297;54.022;10.760;2023-07-08T11:55:59;5.55;;;3.58;;
30515;SDS011;17297;54.022;10.760;2023-07-08T11:58:27;8.55;;;3.75;;
30515;SDS011;17297;54.022;10.760;2023-07-08T12:00:57;6.93;;;3.70;;
30515;SDS011;17297;54.022;10.760;2023-07-08T12:03:51;3.90;;;3.60;;
30515;SDS011;17297;54.022;10.760;2023-07-08T12:08:51;4.40;;;3.70;;
30515;SDS011;17297;54.022;10.760;2023-07-08T12:11:24;5.20;;;3.78;;
30515;SDS011;17297;54.022;10.760;2023-07-08T12:13:53;7.40;;;4.30;;
30515;SDS011;17297;54.022;10.760;2023-07-08T12:16:23;4.18;;;3.65;;
30515;SDS011;17297;54.022;10.760;2023-07-08T12:18:49;5.63;;;4.80;;
30515;SDS011;17297;54.022;10.760;2023-07-08T12:21:15;5.50;;;3.22;;
30515;SDS011;17297;54.022;10.760;2023-07-08T12:23:45;3.45;;;3.15;;
30515;SDS011;17297;54.022;10.760;2023-07-08T12:26:11;8.23;;;3.35;;
30515;SDS011;17297;54.022;10.760;2023-07-08T12:28:38;4.57;;;3.53;;
30515;SDS011;17297;54.022;10.760;2023-07-08T12:31:10;5.50;;;3.30;;
30515;SDS011;17297;54.022;10.760;2023-07-08T12:33:43;3.47;;;3.17;;
30515;SDS011;17297;54.022;10.760;2023-07-08T12:36:10;4.88;;;3.28;;
30515;SDS011;17297;54.022;10.760;2023-07-08T12:38:39;6.18;;;2.72;;
30515;SDS011;17297;54.022;10.760;2023-07-08T12:41:10;3.55;;;2.65;;
30515;SDS011;17297;54.022;10.760;2023-07-08T12:44:02;5.55;;;2.85;;
30515;SDS011;17297;54.022;10.760;2023-07-08T12:46:28;5.75;;;2.70;;
30515;SDS011;17297;54.022;10.760;2023-07-08T12:48:54;4.95;;;3.28;;
30515;SDS011;17297;54.022;10.760;2023-07-08T12:51:21;4.88;;;3.20;;
30515;SDS011;17297;54.022;10.760;2023-07-08T12:53:49;6.65;;;2.60;;
30515;SDS011;17297;54.022;10.760;2023-07-08T12:56:15;4.90;;;2.53;;
30515;SDS011;17297;54.022;10.760;2023-07-08T12:58:43;3.45;;;2.35;;
30515;SDS011;17297;54.022;10.760;2023-07-08T13:01:14;4.63;;;2.50;;
30515;SDS011;17297;54.022;10.760;2023-07-08T13:03:44;20.15;;;4.10;;
30515;SDS011;17297;54.022;10.760;2023-07-08T13:06:14;6.40;;;2.75;;
30515;SDS011;17297;54.022;10.760;2023-07-08T13:08:42;3.03;;;2.47;;
30515;SDS011;17297;54.022;10.760;2023-07-08T13:11:08;4.75;;;2.20;;
30515;SDS011;17297;54.022;10.760;2023-07-08T13:13:37;5.68;;;2.22;;
30515;SDS011;17297;54.022;10.760;2023-07-08T13:16:08;7.88;;;3.75;;
30515;SDS011;17297;54.022;10.760;2023-07-08T13:18:36;3.88;;;2.15;;
30515;SDS011;17297;54.022;10.760;2023-07-08T13:21:04;4.22;;;2.65;;
30515;SDS011;17297;54.022;10.760;2023-07-08T13:23:31;2.97;;;2.53;;
30515;SDS011;17297;54.022;10.760;2023-07-08T13:25:59;4.43;;;2.22;;
30515;SDS011;17297;54.022;10.760;2023-07-08T13:28:26;5.40;;;2.22;;
30515;SDS011;17297;54.022;10.760;2023-07-08T13:30:55;6.22;;;2.15;;
30515;SDS011;17297;54.022;10.760;2023-07-08T13:33:28;4.03;;;2.30;;
30515;SDS011;17297;54.022;10.760;2023-07-08T13:35:58;4.97;;;2.80;;
30515;SDS011;17297;54.022;10.760;2023-07-08T13:38:30;6.13;;;2.47;;
30515;SDS011;17297;54.022;10.760;2023-07-08T13:41:00;4.20;;;2.83;;
30515;SDS011;17297;54.022;10.760;2023-07-08T13:43:28;5.20;;;2.13;;
30515;SDS011;17297;54.022;10.760;2023-07-08T13:45:56;4.00;;;1.85;;
30515;SDS011;17297;54.022;10.760;2023-07-08T13:48:34;4.72;;;3.03;;
30515;SDS011;17297;54.022;10.760;2023-07-08T13:51:07;4.50;;;2.00;;
30515;SDS011;17297;54.022;10.760;2023-07-08T13:56:03;5.68;;;2.38;;
30515;SDS011;17297;54.022;10.760;2023-07-08T13:58:41;4.65;;;2.00;;
30515;SDS011;17297;54.022;10.760;2023-07-08T14:01:10;3.60;;;1.88;;
30515;SDS011;17297;54.022;10.760;2023-07-08T14:03:41;5.07;;;2.47;;
30515;SDS011;17297;54.022;10.760;2023-07-08T14:06:11;8.18;;;2.28;;
30515;SDS011;17297;54.022;10.760;2023-07-08T14:08:38;3.05;;;2.15;;
30515;SDS011;17297;54.022;10.760;2023-07-08T14:11:04;3.35;;;2.22;;
30515;SDS011;17297;54.022;10.760;2023-07-08T14:13:29;3.65;;;2.30;;
30515;SDS011;17297;54.022;10.760;2023-07-08T14:15:54;4.28;;;1.75;;
30515;SDS011;17297;54.022;10.760;2023-07-08T14:18:20;4.03;;;2.15;;
30515;SDS011;17297;54.022;10.760;2023-07-08T14:20:45;6.25;;;2.08;;
30515;SDS011;17297;54.022;10.760;2023-07-08T14:23:11;3.60;;;2.47;;
30515;SDS011;17297;54.022;10.760;2023-07-08T14:25:38;4.32;;;2.03;;
30515;SDS011;17297;54.022;10.760;2023-07-08T14:28:03;5.03;;;2.42;;
30515;SDS011;17297;54.022;10.760;2023-07-08T14:30:31;3.78;;;1.80;;
30515;SDS011;17297;54.022;10.760;2023-07-08T14:32:57;4.32;;;2.22;;
30515;SDS011;17297;54.022;10.760;2023-07-08T14:35:24;9.07;;;2.60;;
30515;SDS011;17297;54.022;10.760;2023-07-08T14:37:52;4.13;;;2.13;;
30515;SDS011;17297;54.022;10.760;2023-07-08T14:40:26;4.78;;;1.92;;
30515;SDS011;17297;54.022;10.760;2023-07-08T14:43:21;3.42;;;1.85;;
30515;SDS011;17297;54.022;10.760;2023-07-08T14:45:56;9.10;;;2.85;;
30515;SDS011;17297;54.022;10.760;2023-07-08T14:48:30;5.03;;;2.17;;
30515;SDS011;17297;54.022;10.760;2023-07-08T14:50:57;7.25;;;2.00;;
30515;SDS011;17297;54.022;10.760;2023-07-08T14:53:22;2.78;;;2.10;;
30515;SDS011;17297;54.022;10.760;2023-07-08T14:55:49;9.52;;;3.28;;
30515;SDS011;17297;54.022;10.760;2023-07-08T14:58:21;4.25;;;2.50;;
30515;SDS011;17297;54.022;10.760;2023-07-08T15:00:50;3.08;;;2.15;;
30515;SDS011;17297;54.022;10.760;2023-07-08T15:03:16;3.10;;;1.95;;
30515;SDS011;17297;54.022;10.760;2023-07-08T15:05:41;4.22;;;1.85;;
30515;SDS011;17297;54.022;10.760;2023-07-08T15:08:07;4.20;;;2.10;;
30515;SDS011;17297;54.022;10.760;2023-07-08T15:10:33;4.28;;;2.00;;
30515;SDS011;17297;54.022;10.760;2023-07-08T15:13:00;4.18;;;2.75;;
30515;SDS011;17297;54.022;10.760;2023-07-08T15:15:27;4.28;;;2.60;;
30515;SDS011;17297;54.022;10.760;2023-07-08T15:17:59;4.05;;;2.20;;
30515;SDS011;17297;54.022;10.760;2023-07-08T15:20:27;2.53;;;1.80;;
30515;SDS011;17297;54.022;10.760;2023-07-08T15:22:53;3.75;;;1.90;;
30515;SDS011;17297;54.022;10.760;2023-07-08T15:25:18;3.72;;;2.05;;
30515;SDS011;17297;54.022;10.760;2023-07-08T15:27:45;3.60;;;2.30;;
30515;SDS011;17297;54.022;10.760;2023-07-08T15:30:18;10.70;;;3.25;;
30515;SDS011;17297;54.022;10.760;2023-07-08T15:32:46;7.53;;;3.05;;
30515;SDS011;17297;54.022;10.760;2023-07-08T15:35:15;4.32;;;2.35;;